Terminal Aerodrome Forecast
Issued by NWS Sterling, VA

Current Version | Previous Version | Graphics & Text | Print | Product List | Glossary On
Versions: 1 2 3 4 5 6 7 8 9 10 11 12 13 14 15 16 17
000
FTUS41 KLWX 210600 AAA
TAFMRB
TAF AMD
KMRB 210629Z 2106/2206 00000KT 2SM BR FEW008
     FM210800 00000KT 3SM BR FEW008 SCT120
     FM211100 00000KT 1SM BR FEW008 SCT010
     FM211200 00000KT P6SM SCT008
     FM211600 VRB03KT P6SM SCT030 BKN110
     FM212000 25004KT P6SM VCTS SCT030 BKN060CB
     FM220000 VRB04KT P6SM BKN050 BKN100=

USA.gov is the U.S. government's official web portal to all federal, state and local government web resources and services.